sensor_id;sensor_type;location;lat;lon;timestamp;temperature;humidity
24468;DHT22;12634;50.852;5.676;2022-12-29T00:02:05;11.50;99.90
24468;DHT22;12634;50.852;5.676;2022-12-29T00:04:32;11.60;99.90
24468;DHT22;12634;50.852;5.676;2022-12-29T00:06:59;11.70;99.90
24468;DHT22;12634;50.852;5.676;2022-12-29T00:09:27;11.60;99.90
24468;DHT22;12634;50.852;5.676;2022-12-29T00:11:54;11.70;99.90
24468;DHT22;12634;50.852;5.676;2022-12-29T00:14:22;11.70;99.90
24468;DHT22;12634;50.852;5.676;2022-12-29T00:17:08;11.80;99.90
24468;DHT22;12634;50.852;5.676;2022-12-29T00:19:35;11.90;99.90
24468;DHT22;12634;50.852;5.676;2022-12-29T00:22:20;11.80;99.90
24468;DHT22;12634;50.852;5.676;2022-12-29T00:25:05;11.90;99.90
24468;DHT22;12634;50.852;5.676;2022-12-29T00:27:51;11.90;99.90
24468;DHT22;12634;50.852;5.676;2022-12-29T00:30:37;11.90;99.90
24468;DHT22;12634;50.852;5.676;2022-12-29T00:33:26;12.00;99.90
24468;DHT22;12634;50.852;5.676;2022-12-29T00:36:15;11.90;99.90
24468;DHT22;12634;50.852;5.676;2022-12-29T00:38:45;11.90;99.90
24468;DHT22;12634;50.852;5.676;2022-12-29T00:41:30;11.90;99.90
24468;DHT22;12634;50.852;5.676;2022-12-29T00:44:15;11.90;99.90
24468;DHT22;12634;50.852;5.676;2022-12-29T00:46:43;11.80;99.90
24468;DHT22;12634;50.852;5.676;2022-12-29T00:49:12;11.80;99.90
24468;DHT22;12634;50.852;5.676;2022-12-29T00:51:58;11.90;99.90
24468;DHT22;12634;50.852;5.676;2022-12-29T00:54:26;11.90;99.90
24468;DHT22;12634;50.852;5.676;2022-12-29T00:56:53;11.90;99.90
24468;DHT22;12634;50.852;5.676;2022-12-29T00:59:21;11.80;99.90
24468;DHT22;12634;50.852;5.676;2022-12-29T01:01:51;11.80;99.90
24468;DHT22;12634;50.852;5.676;2022-12-29T01:04:19;11.80;99.90
24468;DHT22;12634;50.852;5.676;2022-12-29T01:06:46;11.80;99.90
24468;DHT22;12634;50.852;5.676;2022-12-29T01:09:13;11.80;99.90
24468;DHT22;12634;50.852;5.676;2022-12-29T01:11:58;11.80;99.90
24468;DHT22;12634;50.852;5.676;2022-12-29T01:14:26;11.80;99.90
24468;DHT22;12634;50.852;5.676;2022-12-29T01:16:55;11.80;99.90
24468;DHT22;12634;50.852;5.676;2022-12-29T01:19:23;11.90;99.90
24468;DHT22;12634;50.852;5.676;2022-12-29T01:21:50;11.90;99.90
24468;DHT22;12634;50.852;5.676;2022-12-29T01:24:19;11.80;99.90
24468;DHT22;12634;50.852;5.676;2022-12-29T01:26:47;11.80;99.90
24468;DHT22;12634;50.852;5.676;2022-12-29T01:29:14;11.90;99.90
24468;DHT22;12634;50.852;5.676;2022-12-29T01:31:42;11.80;99.90
24468;DHT22;12634;50.852;5.676;2022-12-29T01:34:10;11.90;99.90
24468;DHT22;12634;50.852;5.676;2022-12-29T01:36:38;11.90;99.90
24468;DHT22;12634;50.852;5.676;2022-12-29T01:39:06;11.90;99.90
24468;DHT22;12634;50.852;5.676;2022-12-29T01:41:33;11.90;99.90
24468;DHT22;12634;50.852;5.676;2022-12-29T01:44:02;12.00;99.90
24468;DHT22;12634;50.852;5.676;2022-12-29T01:46:33;12.00;99.90
24468;DHT22;12634;50.852;5.676;2022-12-29T01:49:05;12.00;99.90
24468;DHT22;12634;50.852;5.676;2022-12-29T01:51:42;12.00;99.90
24468;DHT22;12634;50.852;5.676;2022-12-29T01:54:12;12.00;99.90
24468;DHT22;12634;50.852;5.676;2022-12-29T01:56:41;12.00;99.90
24468;DHT22;12634;50.852;5.676;2022-12-29T01:59:11;12.00;99.90
24468;DHT22;12634;50.852;5.676;2022-12-29T02:01:40;12.00;99.90
24468;DHT22;12634;50.852;5.676;2022-12-29T02:04:09;12.00;99.90
24468;DHT22;12634;50.852;5.676;2022-12-29T02:06:43;11.90;99.90
24468;DHT22;12634;50.852;5.676;2022-12-29T02:09:13;11.90;99.90
24468;DHT22;12634;50.852;5.676;2022-12-29T02:11:40;11.90;99.90
24468;DHT22;12634;50.852;5.676;2022-12-29T02:14:09;12.00;99.90
24468;DHT22;12634;50.852;5.676;2022-12-29T02:16:50;12.00;99.90
24468;DHT22;12634;50.852;5.676;2022-12-29T02:22:39;11.80;99.90
24468;DHT22;12634;50.852;5.676;2022-12-29T02:28:45;11.60;99.90
24468;DHT22;12634;50.852;5.676;2022-12-29T02:31:18;11.70;99.90
24468;DHT22;12634;50.852;5.676;2022-12-29T02:33:55;11.70;99.90
24468;DHT22;12634;50.852;5.676;2022-12-29T02:36:34;11.80;99.90
24468;DHT22;12634;50.852;5.676;2022-12-29T02:39:07;11.70;99.90
24468;DHT22;12634;50.852;5.676;2022-12-29T02:41:42;11.60;99.90
24468;DHT22;12634;50.852;5.676;2022-12-29T02:44:16;11.70;99.90
24468;DHT22;12634;50.852;5.676;2022-12-29T02:46:53;11.70;99.90
24468;DHT22;12634;50.852;5.676;2022-12-29T02:49:26;11.80;99.90
24468;DHT22;12634;50.852;5.676;2022-12-29T02:52:01;11.80;99.90
24468;DHT22;12634;50.852;5.676;2022-12-29T02:54:29;11.80;99.90
24468;DHT22;12634;50.852;5.676;2022-12-29T02:57:11;11.80;99.90
24468;DHT22;12634;50.852;5.676;2022-12-29T02:59:39;11.80;99.90
24468;DHT22;12634;50.852;5.676;2022-12-29T03:02:23;11.80;99.90
24468;DHT22;12634;50.852;5.676;2022-12-29T03:05:16;11.90;99.90
24468;DHT22;12634;50.852;5.676;2022-12-29T03:07:50;12.00;99.90
24468;DHT22;12634;50.852;5.676;2022-12-29T03:10:30;12.00;99.90
24468;DHT22;12634;50.852;5.676;2022-12-29T03:13:04;12.00;99.90
24468;DHT22;12634;50.852;5.676;2022-12-29T03:15:58;12.10;99.90
24468;DHT22;12634;50.852;5.676;2022-12-29T03:18:37;12.00;99.90
24468;DHT22;12634;50.852;5.676;2022-12-29T03:21:10;12.10;99.90
24468;DHT22;12634;50.852;5.676;2022-12-29T03:23:40;12.10;99.90
24468;DHT22;12634;50.852;5.676;2022-12-29T03:26:11;12.00;99.90
24468;DHT22;12634;50.852;5.676;2022-12-29T03:28:42;12.00;99.90
24468;DHT22;12634;50.852;5.676;2022-12-29T03:31:12;12.00;99.90
24468;DHT22;12634;50.852;5.676;2022-12-29T03:33:42;11.90;99.90
24468;DHT22;12634;50.852;5.676;2022-12-29T03:36:20;11.90;99.90
24468;DHT22;12634;50.852;5.676;2022-12-29T03:38:56;11.90;99.90
24468;DHT22;12634;50.852;5.676;2022-12-29T03:41:28;11.90;99.90
24468;DHT22;12634;50.852;5.676;2022-12-29T03:43:57;11.90;99.90
24468;DHT22;12634;50.852;5.676;2022-12-29T03:46:24;12.00;99.90
24468;DHT22;12634;50.852;5.676;2022-12-29T03:48:53;12.00;99.90
24468;DHT22;12634;50.852;5.676;2022-12-29T03:51:20;12.10;99.90
24468;DHT22;12634;50.852;5.676;2022-12-29T03:53:47;12.10;99.90
24468;DHT22;12634;50.852;5.676;2022-12-29T03:56:14;12.20;99.90
24468;DHT22;12634;50.852;5.676;2022-12-29T03:58:41;12.10;99.90
24468;DHT22;12634;50.852;5.676;2022-12-29T04:01:09;12.10;99.90
24468;DHT22;12634;50.852;5.676;2022-12-29T04:03:37;12.30;99.90
24468;DHT22;12634;50.852;5.676;2022-12-29T04:06:06;12.30;99.90
24468;DHT22;12634;50.852;5.676;2022-12-29T04:08:33;12.30;99.90
24468;DHT22;12634;50.852;5.676;2022-12-29T04:11:01;12.30;99.90
24468;DHT22;12634;50.852;5.676;2022-12-29T04:13:28;12.30;99.90
24468;DHT22;12634;50.852;5.676;2022-12-29T04:15:55;12.30;99.90
24468;DHT22;12634;50.852;5.676;2022-12-29T04:18:22;12.30;99.90
24468;DHT22;12634;50.852;5.676;2022-12-29T04:20:49;12.30;99.90
24468;DHT22;12634;50.852;5.676;2022-12-29T04:23:33;12.10;99.90
24468;DHT22;12634;50.852;5.676;2022-12-29T04:26:00;12.00;99.90
24468;DHT22;12634;50.852;5.676;2022-12-29T04:28:28;12.00;99.90
24468;DHT22;12634;50.852;5.676;2022-12-29T04:30:55;12.10;99.90
24468;DHT22;12634;50.852;5.676;2022-12-29T04:33:22;12.10;99.90
24468;DHT22;12634;50.852;5.676;2022-12-29T04:35:50;12.10;99.90
24468;DHT22;12634;50.852;5.676;2022-12-29T04:38:18;12.10;99.90
24468;DHT22;12634;50.852;5.676;2022-12-29T04:40:47;12.10;99.90
24468;DHT22;12634;50.852;5.676;2022-12-29T04:43:14;12.10;99.90
24468;DHT22;12634;50.852;5.676;2022-12-29T04:45:43;12.10;99.90
24468;DHT22;12634;50.852;5.676;2022-12-29T04:48:11;12.10;99.90
24468;DHT22;12634;50.852;5.676;2022-12-29T04:50:39;12.00;99.90
24468;DHT22;12634;50.852;5.676;2022-12-29T04:53:06;11.90;99.90
24468;DHT22;12634;50.852;5.676;2022-12-29T04:55:34;11.90;99.90
24468;DHT22;12634;50.852;5.676;2022-12-29T04:58:02;11.90;99.90
24468;DHT22;12634;50.852;5.676;2022-12-29T05:00:29;12.00;99.90
24468;DHT22;12634;50.852;5.676;2022-12-29T05:02:57;11.90;99.90
24468;DHT22;12634;50.852;5.676;2022-12-29T05:05:24;11.80;99.90
24468;DHT22;12634;50.852;5.676;2022-12-29T05:07:51;11.80;99.90
24468;DHT22;12634;50.852;5.676;2022-12-29T05:10:19;11.70;99.90
24468;DHT22;12634;50.852;5.676;2022-12-29T05:12:46;11.70;99.90
24468;DHT22;12634;50.852;5.676;2022-12-29T05:15:14;11.70;99.90
24468;DHT22;12634;50.852;5.676;2022-12-29T05:17:42;11.80;99.90
24468;DHT22;12634;50.852;5.676;2022-12-29T05:20:09;11.70;99.90
24468;DHT22;12634;50.852;5.676;2022-12-29T05:22:37;11.80;99.90
24468;DHT22;12634;50.852;5.676;2022-12-29T05:25:04;11.70;99.90
24468;DHT22;12634;50.852;5.676;2022-12-29T05:27:32;11.70;99.90
24468;DHT22;12634;50.852;5.676;2022-12-29T05:29:59;11.60;99.90
24468;DHT22;12634;50.852;5.676;2022-12-29T05:32:27;11.60;99.90
24468;DHT22;12634;50.852;5.676;2022-12-29T05:34:55;11.70;99.90
24468;DHT22;12634;50.852;5.676;2022-12-29T05:37:22;11.60;99.90
24468;DHT22;12634;50.852;5.676;2022-12-29T05:39:49;11.50;99.90
24468;DHT22;12634;50.852;5.676;2022-12-29T05:42:16;11.50;99.90
24468;DHT22;12634;50.852;5.676;2022-12-29T05:44:43;11.50;99.90
24468;DHT22;12634;50.852;5.676;2022-12-29T05:47:10;11.40;99.90
24468;DHT22;12634;50.852;5.676;2022-12-29T05:49:39;11.40;99.90
24468;DHT22;12634;50.852;5.676;2022-12-29T05:52:06;11.40;99.90
24468;DHT22;12634;50.852;5.676;2022-12-29T05:54:33;11.30;99.90
24468;DHT22;12634;50.852;5.676;2022-12-29T05:57:00;11.40;99.90
24468;DHT22;12634;50.852;5.676;2022-12-29T05:59:27;11.40;99.90
24468;DHT22;12634;50.852;5.676;2022-12-29T06:01:55;11.40;99.90
24468;DHT22;12634;50.852;5.676;2022-12-29T06:04:22;11.40;99.90
24468;DHT22;12634;50.852;5.676;2022-12-29T06:06:50;11.30;99.90
24468;DHT22;12634;50.852;5.676;2022-12-29T06:09:17;11.40;99.90
24468;DHT22;12634;50.852;5.676;2022-12-29T06:11:45;11.40;99.90
24468;DHT22;12634;50.852;5.676;2022-12-29T06:14:12;11.40;99.90
24468;DHT22;12634;50.852;5.676;2022-12-29T06:16:39;11.40;99.90
24468;DHT22;12634;50.852;5.676;2022-12-29T06:19:07;11.40;99.90
24468;DHT22;12634;50.852;5.676;2022-12-29T06:21:34;11.40;99.90
24468;DHT22;12634;50.852;5.676;2022-12-29T06:24:04;11.40;99.90
24468;DHT22;12634;50.852;5.676;2022-12-29T06:26:32;11.40;99.90
24468;DHT22;12634;50.852;5.676;2022-12-29T06:28:59;11.40;99.90
24468;DHT22;12634;50.852;5.676;2022-12-29T06:31:27;11.40;99.90
24468;DHT22;12634;50.852;5.676;2022-12-29T06:33:54;11.30;99.90
24468;DHT22;12634;50.852;5.676;2022-12-29T06:36:21;11.30;99.90
24468;DHT22;12634;50.852;5.676;2022-12-29T06:38:48;11.30;99.90
24468;DHT22;12634;50.852;5.676;2022-12-29T06:41:19;11.30;99.90
24468;DHT22;12634;50.852;5.676;2022-12-29T06:43:47;11.20;99.90
24468;DHT22;12634;50.852;5.676;2022-12-29T06:46:14;11.30;99.90
24468;DHT22;12634;50.852;5.676;2022-12-29T06:48:41;11.20;99.90
24468;DHT22;12634;50.852;5.676;2022-12-29T06:51:08;11.20;99.90
24468;DHT22;12634;50.852;5.676;2022-12-29T06:53:36;11.30;99.90
24468;DHT22;12634;50.852;5.676;2022-12-29T06:56:03;11.20;99.90
24468;DHT22;12634;50.852;5.676;2022-12-29T06:58:32;11.10;99.90
24468;DHT22;12634;50.852;5.676;2022-12-29T07:00:59;11.10;99.90
24468;DHT22;12634;50.852;5.676;2022-12-29T07:03:26;11.00;99.90
24468;DHT22;12634;50.852;5.676;2022-12-29T07:05:54;10.90;99.90
24468;DHT22;12634;50.852;5.676;2022-12-29T07:08:21;11.00;99.90
24468;DHT22;12634;50.852;5.676;2022-12-29T07:10:48;10.90;99.90
24468;DHT22;12634;50.852;5.676;2022-12-29T07:13:15;10.90;99.90
24468;DHT22;12634;50.852;5.676;2022-12-29T07:15:44;10.80;99.90
24468;DHT22;12634;50.852;5.676;2022-12-29T07:18:11;10.90;99.90
24468;DHT22;12634;50.852;5.676;2022-12-29T07:20:38;11.00;99.90
24468;DHT22;12634;50.852;5.676;2022-12-29T07:23:05;11.10;99.90
24468;DHT22;12634;50.852;5.676;2022-12-29T07:25:33;11.10;99.90
24468;DHT22;12634;50.852;5.676;2022-12-29T07:28:01;11.10;99.90
24468;DHT22;12634;50.852;5.676;2022-12-29T07:30:28;11.20;99.90
24468;DHT22;12634;50.852;5.676;2022-12-29T07:32:57;11.10;99.90
24468;DHT22;12634;50.852;5.676;2022-12-29T07:35:24;11.10;99.90
24468;DHT22;12634;50.852;5.676;2022-12-29T07:37:52;10.80;99.90
24468;DHT22;12634;50.852;5.676;2022-12-29T07:40:19;10.60;99.90
24468;DHT22;12634;50.852;5.676;2022-12-29T07:42:46;10.60;99.90
24468;DHT22;12634;50.852;5.676;2022-12-29T07:45:13;10.50;99.90
24468;DHT22;12634;50.852;5.676;2022-12-29T07:47:40;10.40;99.90
24468;DHT22;12634;50.852;5.676;2022-12-29T07:50:09;10.40;99.90
24468;DHT22;12634;50.852;5.676;2022-12-29T07:52:36;10.30;99.90
24468;DHT22;12634;50.852;5.676;2022-12-29T07:55:05;10.50;99.90
24468;DHT22;12634;50.852;5.676;2022-12-29T07:57:32;10.70;99.90
24468;DHT22;12634;50.852;5.676;2022-12-29T07:59:59;10.70;99.90
24468;DHT22;12634;50.852;5.676;2022-12-29T08:02:27;10.70;99.90
24468;DHT22;12634;50.852;5.676;2022-12-29T08:04:55;11.00;99.90
24468;DHT22;12634;50.852;5.676;2022-12-29T08:07:24;10.90;99.90
24468;DHT22;12634;50.852;5.676;2022-12-29T08:09:51;10.90;99.90
24468;DHT22;12634;50.852;5.676;2022-12-29T08:12:18;10.80;99.90
24468;DHT22;12634;50.852;5.676;2022-12-29T08:14:45;10.80;99.90
24468;DHT22;12634;50.852;5.676;2022-12-29T08:17:13;10.80;99.90
24468;DHT22;12634;50.852;5.676;2022-12-29T08:19:40;10.80;99.90
24468;DHT22;12634;50.852;5.676;2022-12-29T08:22:08;10.70;99.90
24468;DHT22;12634;50.852;5.676;2022-12-29T08:24:37;10.90;99.90
24468;DHT22;12634;50.852;5.676;2022-12-29T08:27:04;10.90;99.90
24468;DHT22;12634;50.852;5.676;2022-12-29T08:29:31;10.80;99.90
24468;DHT22;12634;50.852;5.676;2022-12-29T08:31:58;10.80;99.90
24468;DHT22;12634;50.852;5.676;2022-12-29T08:34:25;10.70;99.90
24468;DHT22;12634;50.852;5.676;2022-12-29T08:36:53;10.80;99.90
24468;DHT22;12634;50.852;5.676;2022-12-29T08:39:20;10.90;99.90
24468;DHT22;12634;50.852;5.676;2022-12-29T08:41:49;10.90;99.90
24468;DHT22;12634;50.852;5.676;2022-12-29T08:44:16;11.10;99.90
24468;DHT22;12634;50.852;5.676;2022-12-29T08:46:43;11.30;99.90
24468;DHT22;12634;50.852;5.676;2022-12-29T08:49:11;11.30;99.90
24468;DHT22;12634;50.852;5.676;2022-12-29T08:51:38;11.30;99.90
24468;DHT22;12634;50.852;5.676;2022-12-29T08:54:05;11.40;99.90
24468;DHT22;12634;50.852;5.676;2022-12-29T08:56:33;11.30;99.90
24468;DHT22;12634;50.852;5.676;2022-12-29T08:59:02;11.40;99.90
24468;DHT22;12634;50.852;5.676;2022-12-29T09:01:29;11.40;99.90
24468;DHT22;12634;50.852;5.676;2022-12-29T09:03:56;11.40;99.90
24468;DHT22;12634;50.852;5.676;2022-12-29T09:06:24;11.60;99.90
24468;DHT22;12634;50.852;5.676;2022-12-29T09:08:53;11.70;99.90
24468;DHT22;12634;50.852;5.676;2022-12-29T09:11:23;11.50;99.90
24468;DHT22;12634;50.852;5.676;2022-12-29T09:13:51;11.50;99.90
24468;DHT22;12634;50.852;5.676;2022-12-29T09:16:21;11.40;99.90
24468;DHT22;12634;50.852;5.676;2022-12-29T09:18:49;11.20;99.90
24468;DHT22;12634;50.852;5.676;2022-12-29T09:21:16;11.10;99.90
24468;DHT22;12634;50.852;5.676;2022-12-29T09:23:43;11.00;99.90
24468;DHT22;12634;50.852;5.676;2022-12-29T09:26:11;10.90;99.90
24468;DHT22;12634;50.852;5.676;2022-12-29T09:28:38;11.10;99.90
24468;DHT22;12634;50.852;5.676;2022-12-29T09:31:06;11.20;99.90
24468;DHT22;12634;50.852;5.676;2022-12-29T09:33:35;11.20;99.90
24468;DHT22;12634;50.852;5.676;2022-12-29T09:36:02;11.20;99.90
24468;DHT22;12634;50.852;5.676;2022-12-29T09:38:30;11.10;99.90
24468;DHT22;12634;50.852;5.676;2022-12-29T09:41:01;11.00;99.90
24468;DHT22;12634;50.852;5.676;2022-12-29T09:43:56;10.90;99.90
24468;DHT22;12634;50.852;5.676;2022-12-29T09:46:26;10.90;99.90
24468;DHT22;12634;50.852;5.676;2022-12-29T09:49:06;10.80;99.90
24468;DHT22;12634;50.852;5.676;2022-12-29T09:51:37;10.90;99.90
24468;DHT22;12634;50.852;5.676;2022-12-29T09:54:20;11.00;99.90
24468;DHT22;12634;50.852;5.676;2022-12-29T09:56:51;11.10;99.90
24468;DHT22;12634;50.852;5.676;2022-12-29T09:59:21;11.20;99.90
24468;DHT22;12634;50.852;5.676;2022-12-29T10:01:53;11.30;99.90
24468;DHT22;12634;50.852;5.676;2022-12-29T10:04:26;11.40;99.90
24468;DHT22;12634;50.852;5.676;2022-12-29T10:06:58;11.40;99.90
24468;DHT22;12634;50.852;5.676;2022-12-29T10:09:33;11.40;99.90
24468;DHT22;12634;50.852;5.676;2022-12-29T10:12:08;11.30;99.90
24468;DHT22;12634;50.852;5.676;2022-12-29T10:14:52;11.20;99.90
24468;DHT22;12634;50.852;5.676;2022-12-29T10:17:30;11.10;99.90
24468;DHT22;12634;50.852;5.676;2022-12-29T10:20:14;11.20;99.90
24468;DHT22;12634;50.852;5.676;2022-12-29T10:22:53;11.10;99.90
24468;DHT22;12634;50.852;5.676;2022-12-29T10:25:26;11.20;99.90
24468;DHT22;12634;50.852;5.676;2022-12-29T10:27:59;11.20;99.90
24468;DHT22;12634;50.852;5.676;2022-12-29T10:30:27;11.30;99.90
24468;DHT22;12634;50.852;5.676;2022-12-29T10:32:57;11.40;99.90
24468;DHT22;12634;50.852;5.676;2022-12-29T10:35:32;11.50;99.90
24468;DHT22;12634;50.852;5.676;2022-12-29T10:38:04;11.50;99.90
24468;DHT22;12634;50.852;5.676;2022-12-29T10:40:40;11.50;99.90
24468;DHT22;12634;50.852;5.676;2022-12-29T10:43:19;11.50;99.90
24468;DHT22;12634;50.852;5.676;2022-12-29T10:45:49;11.50;99.90
24468;DHT22;12634;50.852;5.676;2022-12-29T10:48:20;11.50;99.90
24468;DHT22;12634;50.852;5.676;2022-12-29T10:50:50;11.50;99.90
24468;DHT22;12634;50.852;5.676;2022-12-29T10:53:22;11.60;99.90
24468;DHT22;12634;50.852;5.676;2022-12-29T10:55:51;11.60;99.90
24468;DHT22;12634;50.852;5.676;2022-12-29T10:58:20;11.50;99.90
24468;DHT22;12634;50.852;5.676;2022-12-29T11:00:51;11.50;99.90
24468;DHT22;12634;50.852;5.676;2022-12-29T11:03:48;11.50;99.90
24468;DHT22;12634;50.852;5.676;2022-12-29T11:06:22;11.60;99.90
24468;DHT22;12634;50.852;5.676;2022-12-29T11:08:55;11.50;99.90
24468;DHT22;12634;50.852;5.676;2022-12-29T11:11:25;11.60;99.90
24468;DHT22;12634;50.852;5.676;2022-12-29T11:13:57;11.60;99.90
24468;DHT22;12634;50.852;5.676;2022-12-29T11:16:29;11.70;99.90
24468;DHT22;12634;50.852;5.676;2022-12-29T11:18:58;11.70;99.90
24468;DHT22;12634;50.852;5.676;2022-12-29T11:21:31;11.80;99.90
24468;DHT22;12634;50.852;5.676;2022-12-29T11:24:00;12.10;99.90
24468;DHT22;12634;50.852;5.676;2022-12-29T11:26:28;12.00;99.90
24468;DHT22;12634;50.852;5.676;2022-12-29T11:29:20;12.10;99.90
24468;DHT22;12634;50.852;5.676;2022-12-29T11:31:49;11.90;99.90
24468;DHT22;12634;50.852;5.676;2022-12-29T11:34:19;11.90;99.90
24468;DHT22;12634;50.852;5.676;2022-12-29T11:36:49;11.90;99.90
24468;DHT22;12634;50.852;5.676;2022-12-29T11:39:31;11.80;99.90
24468;DHT22;12634;50.852;5.676;2022-12-29T11:42:00;11.70;99.90
24468;DHT22;12634;50.852;5.676;2022-12-29T11:44:32;11.70;99.90
24468;DHT22;12634;50.852;5.676;2022-12-29T11:47:01;11.70;99.90
24468;DHT22;12634;50.852;5.676;2022-12-29T11:49:28;11.60;99.90
24468;DHT22;12634;50.852;5.676;2022-12-29T11:51:57;11.50;99.90
24468;DHT22;12634;50.852;5.676;2022-12-29T11:54:27;11.60;99.90
24468;DHT22;12634;50.852;5.676;2022-12-29T11:56:57;11.50;99.90
24468;DHT22;12634;50.852;5.676;2022-12-29T11:59:38;11.50;99.90
24468;DHT22;12634;50.852;5.676;2022-12-29T12:02:41;11.50;99.90
24468;DHT22;12634;50.852;5.676;2022-12-29T12:05:18;11.50;99.90
24468;DHT22;12634;50.852;5.676;2022-12-29T12:07:52;11.50;99.90
24468;DHT22;12634;50.852;5.676;2022-12-29T12:10:24;11.40;99.90
24468;DHT22;12634;50.852;5.676;2022-12-29T12:12:59;11.40;99.90
24468;DHT22;12634;50.852;5.676;2022-12-29T12:15:33;11.40;99.90
24468;DHT22;12634;50.852;5.676;2022-12-29T12:18:09;11.40;99.90
24468;DHT22;12634;50.852;5.676;2022-12-29T12:20:45;11.40;99.90
24468;DHT22;12634;50.852;5.676;2022-12-29T12:23:22;11.30;99.90
24468;DHT22;12634;50.852;5.676;2022-12-29T12:25:59;11.30;99.90
24468;DHT22;12634;50.852;5.676;2022-12-29T12:28:36;11.30;99.90
24468;DHT22;12634;50.852;5.676;2022-12-29T12:31:11;11.30;99.90
24468;DHT22;12634;50.852;5.676;2022-12-29T12:33:46;11.40;99.90
24468;DHT22;12634;50.852;5.676;2022-12-29T12:36:30;11.40;99.90
24468;DHT22;12634;50.852;5.676;2022-12-29T12:39:05;11.40;99.90
24468;DHT22;12634;50.852;5.676;2022-12-29T12:41:46;11.40;99.90
24468;DHT22;12634;50.852;5.676;2022-12-29T12:44:20;11.40;99.90
24468;DHT22;12634;50.852;5.676;2022-12-29T12:55:44;11.50;99.90
24468;DHT22;12634;50.852;5.676;2022-12-29T12:58:21;11.40;99.90
24468;DHT22;12634;50.852;5.676;2022-12-29T13:01:03;11.50;99.90
24468;DHT22;12634;50.852;5.676;2022-12-29T13:03:44;11.50;99.90
24468;DHT22;12634;50.852;5.676;2022-12-29T13:06:21;11.40;99.90
24468;DHT22;12634;50.852;5.676;2022-12-29T13:09:11;11.30;99.90
24468;DHT22;12634;50.852;5.676;2022-12-29T13:11:51;11.30;99.90
24468;DHT22;12634;50.852;5.676;2022-12-29T13:14:29;11.20;99.90
24468;DHT22;12634;50.852;5.676;2022-12-29T13:17:08;11.20;99.90
24468;DHT22;12634;50.852;5.676;2022-12-29T13:19:41;11.20;99.90
24468;DHT22;12634;50.852;5.676;2022-12-29T13:22:12;11.10;99.90
24468;DHT22;12634;50.852;5.676;2022-12-29T13:24:51;11.20;99.90
24468;DHT22;12634;50.852;5.676;2022-12-29T13:27:29;11.10;99.90
24468;DHT22;12634;50.852;5.676;2022-12-29T13:30:02;11.00;99.90
24468;DHT22;12634;50.852;5.676;2022-12-29T13:32:41;11.10;99.90
24468;DHT22;12634;50.852;5.676;2022-12-29T13:35:28;11.10;99.90
24468;DHT22;12634;50.852;5.676;2022-12-29T13:38:03;11.00;99.90
24468;DHT22;12634;50.852;5.676;2022-12-29T13:40:34;11.00;99.90
24468;DHT22;12634;50.852;5.676;2022-12-29T13:43:06;11.00;99.90
24468;DHT22;12634;50.852;5.676;2022-12-29T13:45:34;10.90;99.90
24468;DHT22;12634;50.852;5.676;2022-12-29T13:48:06;11.00;99.90
24468;DHT22;12634;50.852;5.676;2022-12-29T13:50:38;10.90;99.90
24468;DHT22;12634;50.852;5.676;2022-12-29T13:53:14;10.90;99.90
24468;DHT22;12634;50.852;5.676;2022-12-29T13:55:49;10.90;99.90
24468;DHT22;12634;50.852;5.676;2022-12-29T13:58:26;10.90;99.90
24468;DHT22;12634;50.852;5.676;2022-12-29T14:00:58;10.90;99.90
24468;DHT22;12634;50.852;5.676;2022-12-29T14:03:43;10.90;99.90
24468;DHT22;12634;50.852;5.676;2022-12-29T14:06:15;11.00;99.90
24468;DHT22;12634;50.852;5.676;2022-12-29T14:08:43;10.90;99.90
24468;DHT22;12634;50.852;5.676;2022-12-29T14:11:13;10.90;99.90
24468;DHT22;12634;50.852;5.676;2022-12-29T14:13:44;10.90;99.90
24468;DHT22;12634;50.852;5.676;2022-12-29T14:16:27;10.90;99.90
24468;DHT22;12634;50.852;5.676;2022-12-29T14:18:56;10.90;99.90
24468;DHT22;12634;50.852;5.676;2022-12-29T14:21:25;10.90;99.90
24468;DHT22;12634;50.852;5.676;2022-12-29T14:26:43;10.90;99.90
24468;DHT22;12634;50.852;5.676;2022-12-29T14:29:43;10.80;99.90
24468;DHT22;12634;50.852;5.676;2022-12-29T14:32:36;10.80;99.90
24468;DHT22;12634;50.852;5.676;2022-12-29T14:35:36;10.80;99.90
24468;DHT22;12634;50.852;5.676;2022-12-29T14:38:27;10.80;99.90
24468;DHT22;12634;50.852;5.676;2022-12-29T14:41:23;10.80;99.90
24468;DHT22;12634;50.852;5.676;2022-12-29T14:43:57;10.70;99.90
24468;DHT22;12634;50.852;5.676;2022-12-29T14:46:54;10.80;99.90
24468;DHT22;12634;50.852;5.676;2022-12-29T14:49:24;10.70;99.90
24468;DHT22;12634;50.852;5.676;2022-12-29T14:51:54;10.70;99.90
24468;DHT22;12634;50.852;5.676;2022-12-29T14:54:51;10.50;99.90
24468;DHT22;12634;50.852;5.676;2022-12-29T14:57:37;10.40;99.90
24468;DHT22;12634;50.852;5.676;2022-12-29T15:00:16;10.50;99.90
24468;DHT22;12634;50.852;5.676;2022-12-29T15:02:49;10.50;99.90
24468;DHT22;12634;50.852;5.676;2022-12-29T15:05:30;10.30;99.90
24468;DHT22;12634;50.852;5.676;2022-12-29T15:07:59;10.30;99.90
24468;DHT22;12634;50.852;5.676;2022-12-29T15:10:36;10.20;99.90
24468;DHT22;12634;50.852;5.676;2022-12-29T15:13:09;10.20;99.90
24468;DHT22;12634;50.852;5.676;2022-12-29T15:15:40;10.20;99.90
24468;DHT22;12634;50.852;5.676;2022-12-29T15:18:23;10.20;99.90
24468;DHT22;12634;50.852;5.676;2022-12-29T15:20:52;10.20;99.90
24468;DHT22;12634;50.852;5.676;2022-12-29T15:23:21;10.00;99.90
24468;DHT22;12634;50.852;5.676;2022-12-29T15:25:51;10.00;99.90
24468;DHT22;12634;50.852;5.676;2022-12-29T15:28:20;10.00;99.90
24468;DHT22;12634;50.852;5.676;2022-12-29T15:30:53;9.90;99.90
24468;DHT22;12634;50.852;5.676;2022-12-29T15:33:23;9.90;99.90
24468;DHT22;12634;50.852;5.676;2022-12-29T15:35:55;9.80;99.90
24468;DHT22;12634;50.852;5.676;2022-12-29T15:38:24;9.80;99.90
24468;DHT22;12634;50.852;5.676;2022-12-29T15:40:53;9.70;99.90
24468;DHT22;12634;50.852;5.676;2022-12-29T15:43:43;9.70;99.90
24468;DHT22;12634;50.852;5.676;2022-12-29T15:46:13;9.50;99.90
24468;DHT22;12634;50.852;5.676;2022-12-29T15:48:42;9.40;99.90
24468;DHT22;12634;50.852;5.676;2022-12-29T15:51:20;9.50;99.90
24468;DHT22;12634;50.852;5.676;2022-12-29T15:53:52;9.50;99.90
24468;DHT22;12634;50.852;5.676;2022-12-29T15:56:19;9.50;99.90
24468;DHT22;12634;50.852;5.676;2022-12-29T15:58:48;9.60;99.90
24468;DHT22;12634;50.852;5.676;2022-12-29T16:01:23;9.50;99.90
24468;DHT22;12634;50.852;5.676;2022-12-29T16:03:53;9.60;99.90
24468;DHT22;12634;50.852;5.676;2022-12-29T16:06:29;9.40;99.90
24468;DHT22;12634;50.852;5.676;2022-12-29T16:08:58;9.50;99.90
24468;DHT22;12634;50.852;5.676;2022-12-29T16:11:29;9.50;99.90
24468;DHT22;12634;50.852;5.676;2022-12-29T16:13:59;9.40;99.90
24468;DHT22;12634;50.852;5.676;2022-12-29T16:16:28;9.20;99.90
24468;DHT22;12634;50.852;5.676;2022-12-29T16:18:58;9.20;99.90
24468;DHT22;12634;50.852;5.676;2022-12-29T16:21:29;9.20;99.90